sensor_id;sensor_type;location;lat;lon;timestamp;pressure;altitude;pressure_sealevel;temperature;humidity
14689;BME280;7432;48.728;9.154;2023-07-02T00:01:16;146045.50;;;17.37;89.04
14689;BME280;7432;48.728;9.154;2023-07-02T00:03:42;146058.91;;;17.42;89.17
14689;BME280;7432;48.728;9.154;2023-07-02T00:06:10;146064.97;;;17.45;88.36
14689;BME280;7432;48.728;9.154;2023-07-02T00:08:36;146063.75;;;17.44;88.46
14689;BME280;7432;48.728;9.154;2023-07-02T00:11:02;146058.91;;;17.42;88.55
14689;BME280;7432;48.728;9.154;2023-07-02T00:13:29;146045.50;;;17.37;88.15
14689;BME280;7432;48.728;9.154;2023-07-02T00:15:55;146040.66;;;17.35;88.75
14689;BME280;7432;48.728;9.154;2023-07-02T00:18:22;146035.75;;;17.33;88.41
14689;BME280;7432;48.728;9.154;2023-07-02T00:20:48;146011.44;;;17.23;88.28
14689;BME280;7432;48.728;9.154;2023-07-02T00:23:16;145993.22;;;17.15;88.72
14689;BME280;7432;48.728;9.154;2023-07-02T00:25:42;145984.69;;;17.11;88.46
14689;BME280;7432;48.728;9.154;2023-07-02T00:28:08;145972.53;;;17.06;87.95
14689;BME280;7432;48.728;9.154;2023-07-02T00:30:35;145961.59;;;17.02;88.25
14689;BME280;7432;48.728;9.154;2023-07-02T00:33:01;145944.56;;;16.95;89.00
14689;BME280;7432;48.728;9.154;2023-07-02T00:35:27;145933.63;;;16.90;88.82
14689;BME280;7432;48.728;9.154;2023-07-02T00:37:54;145933.63;;;16.90;88.66
14689;BME280;7432;48.728;9.154;2023-07-02T00:40:21;145914.16;;;16.82;88.38
14689;BME280;7432;48.728;9.154;2023-07-02T00:42:48;145931.19;;;16.89;88.25
14689;BME280;7432;48.728;9.154;2023-07-02T00:45:14;145932.41;;;16.90;88.16
14689;BME280;7432;48.728;9.154;2023-07-02T00:47:40;145929.94;;;16.89;88.37
14689;BME280;7432;48.728;9.154;2023-07-02T00:50:07;145917.78;;;16.84;87.54
14689;BME280;7432;48.728;9.154;2023-07-02T00:52:34;145910.50;;;16.81;87.89
14689;BME280;7432;48.728;9.154;2023-07-02T00:55:01;145923.88;;;16.86;86.72
14689;BME280;7432;48.728;9.154;2023-07-02T00:57:28;145947.00;;;16.96;86.31
14689;BME280;7432;48.728;9.154;2023-07-02T00:59:56;145921.47;;;16.85;86.46
14689;BME280;7432;48.728;9.154;2023-07-02T01:02:22;145937.25;;;16.92;86.74
14689;BME280;7432;48.728;9.154;2023-07-02T01:04:51;145956.69;;;17.00;86.85
14689;BME280;7432;48.728;9.154;2023-07-02T01:07:22;145972.53;;;17.06;86.40
14689;BME280;7432;48.728;9.154;2023-07-02T01:09:49;145974.97;;;17.07;85.98
14689;BME280;7432;48.728;9.154;2023-07-02T01:12:17;145999.28;;;17.17;85.67
14689;BME280;7432;48.728;9.154;2023-07-02T01:14:48;146006.59;;;17.21;84.97
14689;BME280;7432;48.728;9.154;2023-07-02T01:17:18;145999.28;;;17.17;85.31
14689;BME280;7432;48.728;9.154;2023-07-02T01:19:49;146006.59;;;17.21;84.51
14689;BME280;7432;48.728;9.154;2023-07-02T01:22:17;145982.25;;;17.10;85.31
14689;BME280;7432;48.728;9.154;2023-07-02T01:24:45;145995.63;;;17.16;85.18
14689;BME280;7432;48.728;9.154;2023-07-02T01:27:13;145973.75;;;17.07;85.24
14689;BME280;7432;48.728;9.154;2023-07-02T01:29:40;145966.47;;;17.04;85.85
14689;BME280;7432;48.728;9.154;2023-07-02T01:32:07;145955.47;;;16.99;85.80
14689;BME280;7432;48.728;9.154;2023-07-02T01:34:34;145937.25;;;16.92;85.93
14689;BME280;7432;48.728;9.154;2023-07-02T01:37:03;145914.16;;;16.82;86.37
14689;BME280;7432;48.728;9.154;2023-07-02T01:39:29;145891.03;;;16.73;86.55
14689;BME280;7432;48.728;9.154;2023-07-02T01:42:08;145884.97;;;16.70;86.48
14689;BME280;7432;48.728;9.154;2023-07-02T01:44:35;145861.88;;;16.61;87.21
14689;BME280;7432;48.728;9.154;2023-07-02T01:47:03;145854.59;;;16.57;87.00
14689;BME280;7432;48.728;9.154;2023-07-02T01:49:29;145841.16;;;16.52;87.53
14689;BME280;7432;48.728;9.154;2023-07-02T01:51:56;145839.94;;;16.51;87.75
14689;BME280;7432;48.728;9.154;2023-07-02T01:54:26;145831.41;;;16.48;87.81
14689;BME280;7432;48.728;9.154;2023-07-02T01:56:53;145818.03;;;16.42;88.08
14689;BME280;7432;48.728;9.154;2023-07-02T01:59:19;145819.28;;;16.43;88.33
14689;BME280;7432;48.728;9.154;2023-07-02T02:01:46;145816.88;;;16.42;88.53
14689;BME280;7432;48.728;9.154;2023-07-02T02:04:12;145820.50;;;16.43;88.01
14689;BME280;7432;48.728;9.154;2023-07-02T02:06:39;145822.94;;;16.44;88.49
14689;BME280;7432;48.728;9.154;2023-07-02T02:09:06;145820.50;;;16.43;88.54
14689;BME280;7432;48.728;9.154;2023-07-02T02:11:38;145830.25;;;16.47;88.36
14689;BME280;7432;48.728;9.154;2023-07-02T02:14:05;145830.25;;;16.47;88.04
14689;BME280;7432;48.728;9.154;2023-07-02T02:16:31;145825.34;;;16.45;88.44
14689;BME280;7432;48.728;9.154;2023-07-02T02:18:59;145829.03;;;16.47;88.68
14689;BME280;7432;48.728;9.154;2023-07-02T02:21:26;145816.88;;;16.42;88.61
14689;BME280;7432;48.728;9.154;2023-07-02T02:23:53;145829.03;;;16.47;88.66
14689;BME280;7432;48.728;9.154;2023-07-02T02:26:20;145844.84;;;16.53;88.42
14689;BME280;7432;48.728;9.154;2023-07-02T02:28:48;145841.16;;;16.52;88.61
14689;BME280;7432;48.728;9.154;2023-07-02T02:31:15;145844.84;;;16.53;88.71
14689;BME280;7432;48.728;9.154;2023-07-02T02:33:41;145853.38;;;16.57;88.77
14689;BME280;7432;48.728;9.154;2023-07-02T02:36:07;145864.28;;;16.62;88.09
14689;BME280;7432;48.728;9.154;2023-07-02T02:38:34;145875.25;;;16.66;88.09
14689;BME280;7432;48.728;9.154;2023-07-02T02:41:02;145869.19;;;16.64;88.24
14689;BME280;7432;48.728;9.154;2023-07-02T02:43:28;145872.81;;;16.65;88.07
14689;BME280;7432;48.728;9.154;2023-07-02T02:45:56;145874.03;;;16.66;88.27
14689;BME280;7432;48.728;9.154;2023-07-02T02:48:22;145876.44;;;16.67;88.07
14689;BME280;7432;48.728;9.154;2023-07-02T02:50:49;145880.13;;;16.68;87.65
14689;BME280;7432;48.728;9.154;2023-07-02T02:53:15;145908.09;;;16.80;87.44
14689;BME280;7432;48.728;9.154;2023-07-02T02:55:42;145905.66;;;16.79;87.37
14689;BME280;7432;48.728;9.154;2023-07-02T02:58:08;145915.38;;;16.83;87.43
14689;BME280;7432;48.728;9.154;2023-07-02T03:00:34;145912.94;;;16.82;87.21
14689;BME280;7432;48.728;9.154;2023-07-02T03:03:02;145931.19;;;16.89;87.29
14689;BME280;7432;48.728;9.154;2023-07-02T03:05:29;145910.50;;;16.81;85.01
14689;BME280;7432;48.728;9.154;2023-07-02T03:07:55;145921.47;;;16.85;82.92
14689;BME280;7432;48.728;9.154;2023-07-02T03:10:21;145936.03;;;16.91;82.14
14689;BME280;7432;48.728;9.154;2023-07-02T03:12:48;145925.09;;;16.87;81.86
14689;BME280;7432;48.728;9.154;2023-07-02T03:15:14;145937.25;;;16.92;82.00
14689;BME280;7432;48.728;9.154;2023-07-02T03:17:42;145929.94;;;16.89;82.92
14689;BME280;7432;48.728;9.154;2023-07-02T03:20:11;145925.09;;;16.87;84.32
14689;BME280;7432;48.728;9.154;2023-07-02T03:22:37;145915.38;;;16.83;85.81
14689;BME280;7432;48.728;9.154;2023-07-02T03:25:04;145891.03;;;16.73;86.80
14689;BME280;7432;48.728;9.154;2023-07-02T03:27:30;145838.72;;;16.51;87.34
14689;BME280;7432;48.728;9.154;2023-07-02T03:29:56;145807.13;;;16.38;88.48
14689;BME280;7432;48.728;9.154;2023-07-02T03:32:23;145760.94;;;16.19;89.68
14689;BME280;7432;48.728;9.154;2023-07-02T03:34:50;145764.56;;;16.20;90.36
14689;BME280;7432;48.728;9.154;2023-07-02T03:37:18;145734.19;;;16.08;90.64
14689;BME280;7432;48.728;9.154;2023-07-02T03:39:44;145719.59;;;16.01;90.61
14689;BME280;7432;48.728;9.154;2023-07-02T03:42:11;145701.38;;;15.94;91.47
14689;BME280;7432;48.728;9.154;2023-07-02T03:44:37;145700.16;;;15.93;91.87
14689;BME280;7432;48.728;9.154;2023-07-02T03:47:04;145706.22;;;15.96;92.16
14689;BME280;7432;48.728;9.154;2023-07-02T03:49:30;145681.94;;;15.86;93.12
14689;BME280;7432;48.728;9.154;2023-07-02T03:51:56;145646.69;;;15.71;93.34
14689;BME280;7432;48.728;9.154;2023-07-02T03:54:24;145641.84;;;15.69;94.19
14689;BME280;7432;48.728;9.154;2023-07-02T03:56:50;145632.16;;;15.65;94.46
14689;BME280;7432;48.728;9.154;2023-07-02T03:59:17;145613.88;;;15.58;95.35
14689;BME280;7432;48.728;9.154;2023-07-02T04:01:43;145632.16;;;15.65;95.22
14689;BME280;7432;48.728;9.154;2023-07-02T04:04:09;145615.13;;;15.58;95.81
14689;BME280;7432;48.728;9.154;2023-07-02T04:06:36;145622.41;;;15.61;96.84
14689;BME280;7432;48.728;9.154;2023-07-02T04:09:03;145628.47;;;15.64;97.02
14689;BME280;7432;48.728;9.154;2023-07-02T04:11:30;145617.56;;;15.59;96.83
14689;BME280;7432;48.728;9.154;2023-07-02T04:13:57;145622.41;;;15.61;96.46
14689;BME280;7432;48.728;9.154;2023-07-02T04:16:23;145615.13;;;15.58;97.15
14689;BME280;7432;48.728;9.154;2023-07-02T04:18:49;145609.03;;;15.56;97.52
14689;BME280;7432;48.728;9.154;2023-07-02T04:21:16;145626.06;;;15.63;96.30
14689;BME280;7432;48.728;9.154;2023-07-02T04:23:42;145637.00;;;15.67;96.15
14689;BME280;7432;48.728;9.154;2023-07-02T04:26:08;145647.91;;;15.72;96.13
14689;BME280;7432;48.728;9.154;2023-07-02T04:28:36;145646.69;;;15.71;96.04
14689;BME280;7432;48.728;9.154;2023-07-02T04:31:03;145664.94;;;15.79;94.92
14689;BME280;7432;48.728;9.154;2023-07-02T04:33:29;145656.44;;;15.75;94.28
14689;BME280;7432;48.728;9.154;2023-07-02T04:36:01;145680.72;;;15.85;94.68
14689;BME280;7432;48.728;9.154;2023-07-02T04:38:28;145677.09;;;15.84;94.57
14689;BME280;7432;48.728;9.154;2023-07-02T04:40:54;145709.91;;;15.97;94.64
14689;BME280;7432;48.728;9.154;2023-07-02T04:43:22;145730.56;;;16.06;94.84
14689;BME280;7432;48.728;9.154;2023-07-02T04:45:50;145760.94;;;16.19;94.26
14689;BME280;7432;48.728;9.154;2023-07-02T04:48:16;145763.38;;;16.20;92.74
14689;BME280;7432;48.728;9.154;2023-07-02T04:50:43;145759.72;;;16.18;92.34
14689;BME280;7432;48.728;9.154;2023-07-02T04:53:09;145753.63;;;16.16;91.78
14689;BME280;7432;48.728;9.154;2023-07-02T04:55:35;145770.69;;;16.23;90.03
14689;BME280;7432;48.728;9.154;2023-07-02T04:58:02;145779.16;;;16.26;89.00
14689;BME280;7432;48.728;9.154;2023-07-02T05:00:28;145793.75;;;16.32;88.94
14689;BME280;7432;48.728;9.154;2023-07-02T05:02:56;145780.38;;;16.27;89.76
14689;BME280;7432;48.728;9.154;2023-07-02T05:05:22;145807.13;;;16.38;88.71
14689;BME280;7432;48.728;9.154;2023-07-02T05:07:48;145866.75;;;16.63;87.53
14689;BME280;7432;48.728;9.154;2023-07-02T05:10:15;145912.94;;;16.82;85.86
14689;BME280;7432;48.728;9.154;2023-07-02T05:12:41;145950.63;;;16.97;85.59
14689;BME280;7432;48.728;9.154;2023-07-02T05:15:09;145998.06;;;17.17;84.00
14689;BME280;7432;48.728;9.154;2023-07-02T05:17:37;145983.47;;;17.11;83.49
14689;BME280;7432;48.728;9.154;2023-07-02T05:20:06;145968.84;;;17.05;82.99
14689;BME280;7432;48.728;9.154;2023-07-02T05:22:32;145947.00;;;16.96;84.45
14689;BME280;7432;48.728;9.154;2023-07-02T05:24:59;145962.78;;;17.02;83.87
14689;BME280;7432;48.728;9.154;2023-07-02T05:27:25;145976.16;;;17.08;83.80
14689;BME280;7432;48.728;9.154;2023-07-02T05:29:52;145983.47;;;17.11;83.73
14689;BME280;7432;48.728;9.154;2023-07-02T05:32:18;145990.75;;;17.14;82.82
14689;BME280;7432;48.728;9.154;2023-07-02T05:34:44;145982.25;;;17.10;81.56
14689;BME280;7432;48.728;9.154;2023-07-02T05:37:12;146005.38;;;17.20;81.56
14689;BME280;7432;48.728;9.154;2023-07-02T05:39:38;146006.59;;;17.21;82.17
14689;BME280;7432;48.728;9.154;2023-07-02T05:42:05;146004.16;;;17.19;81.43
14689;BME280;7432;48.728;9.154;2023-07-02T05:44:31;145972.53;;;17.06;82.11
14689;BME280;7432;48.728;9.154;2023-07-02T05:46:58;145953.06;;;16.98;82.22
14689;BME280;7432;48.728;9.154;2023-07-02T05:49:24;145982.25;;;17.10;81.32
14689;BME280;7432;48.728;9.154;2023-07-02T05:51:51;146045.50;;;17.37;78.84
14689;BME280;7432;48.728;9.154;2023-07-02T05:54:19;146136.81;;;17.74;79.07
14689;BME280;7432;48.728;9.154;2023-07-02T05:56:45;146225.66;;;18.11;77.39
14689;BME280;7432;48.728;9.154;2023-07-02T05:59:11;146319.41;;;18.50;74.76
14689;BME280;7432;48.728;9.154;2023-07-02T06:01:42;146385.16;;;18.77;73.37
14689;BME280;7432;48.728;9.154;2023-07-02T06:04:09;146461.91;;;19.09;73.28
14689;BME280;7432;48.728;9.154;2023-07-02T06:06:35;146566.72;;;19.52;71.57
14689;BME280;7432;48.728;9.154;2023-07-02T06:09:01;146665.41;;;19.93;68.66
14689;BME280;7432;48.728;9.154;2023-07-02T06:11:30;146799.56;;;20.49;67.11
14689;BME280;7432;48.728;9.154;2023-07-02T06:13:56;146894.66;;;20.88;64.22
14689;BME280;7432;48.728;9.154;2023-07-02T06:16:23;147026.44;;;21.43;62.64
14689;BME280;7432;48.728;9.154;2023-07-02T06:18:50;147242.53;;;22.32;60.59
14689;BME280;7432;48.728;9.154;2023-07-02T06:21:16;147535.69;;;23.53;57.16
14689;BME280;7432;48.728;9.154;2023-07-02T06:23:43;148113.00;;;25.91;50.85
14689;BME280;7432;48.728;9.154;2023-07-02T06:26:09;148631.19;;;28.04;45.13
14689;BME280;7432;48.728;9.154;2023-07-02T06:28:38;149124.25;;;30.07;41.19
14689;BME280;7432;48.728;9.154;2023-07-02T06:31:04;149340.31;;;30.96;38.15
14689;BME280;7432;48.728;9.154;2023-07-02T06:33:32;149589.66;;;31.98;36.74
14689;BME280;7432;48.728;9.154;2023-07-02T06:35:58;149390.66;;;31.17;36.28
14689;BME280;7432;48.728;9.154;2023-07-02T06:38:25;149234.72;;;30.52;36.88
14689;BME280;7432;48.728;9.154;2023-07-02T06:40:51;149083.75;;;29.90;37.87
14689;BME280;7432;48.728;9.154;2023-07-02T06:43:17;148748.81;;;28.53;40.17
14689;BME280;7432;48.728;9.154;2023-07-02T06:45:45;148402.03;;;27.10;42.28
14689;BME280;7432;48.728;9.154;2023-07-02T06:48:11;148126.44;;;25.97;44.31
14689;BME280;7432;48.728;9.154;2023-07-02T06:50:43;147730.09;;;24.33;48.56
14689;BME280;7432;48.728;9.154;2023-07-02T06:53:09;147676.28;;;24.11;49.12
14689;BME280;7432;48.728;9.154;2023-07-02T06:55:35;148195.06;;;26.25;45.96
14689;BME280;7432;48.728;9.154;2023-07-02T06:58:04;148585.78;;;27.86;42.06
14689;BME280;7432;48.728;9.154;2023-07-02T07:00:31;148811.41;;;28.78;40.84
14689;BME280;7432;48.728;9.154;2023-07-02T07:02:58;148838.38;;;28.90;39.35
14689;BME280;7432;48.728;9.154;2023-07-02T07:05:25;148531.88;;;27.63;41.02
14689;BME280;7432;48.728;9.154;2023-07-02T07:07:51;148244.00;;;26.45;43.31
14689;BME280;7432;48.728;9.154;2023-07-02T07:10:17;148285.63;;;26.62;43.21
14689;BME280;7432;48.728;9.154;2023-07-02T07:12:45;148606.63;;;27.94;40.50
14689;BME280;7432;48.728;9.154;2023-07-02T07:15:11;148980.69;;;29.48;38.96
14689;BME280;7432;48.728;9.154;2023-07-02T07:17:38;149086.22;;;29.91;36.90
14689;BME280;7432;48.728;9.154;2023-07-02T07:20:06;149035.84;;;29.71;37.24
14689;BME280;7432;48.728;9.154;2023-07-02T07:22:33;148975.75;;;29.46;37.61
14689;BME280;7432;48.728;9.154;2023-07-02T07:24:59;149178.25;;;30.29;36.21
14689;BME280;7432;48.728;9.154;2023-07-02T07:27:26;149153.66;;;30.19;35.74
14689;BME280;7432;48.728;9.154;2023-07-02T07:29:52;149509.81;;;31.65;33.71
14689;BME280;7432;48.728;9.154;2023-07-02T07:32:20;149791.25;;;32.81;31.72
14689;BME280;7432;48.728;9.154;2023-07-02T07:34:46;150026.09;;;33.77;30.86
14689;BME280;7432;48.728;9.154;2023-07-02T07:37:14;150109.78;;;34.12;29.99
14689;BME280;7432;48.728;9.154;2023-07-02T07:39:40;150250.06;;;34.69;28.77
14689;BME280;7432;48.728;9.154;2023-07-02T07:42:07;150336.19;;;35.04;29.07
14689;BME280;7432;48.728;9.154;2023-07-02T07:44:33;150005.25;;;33.69;29.92
14689;BME280;7432;48.728;9.154;2023-07-02T07:46:59;150154.06;;;34.30;29.65
14689;BME280;7432;48.728;9.154;2023-07-02T07:49:26;149956.00;;;33.49;30.16
14689;BME280;7432;48.728;9.154;2023-07-02T07:51:52;149967.03;;;33.53;29.57
14689;BME280;7432;48.728;9.154;2023-07-02T07:54:20;149774.03;;;32.74;30.37
14689;BME280;7432;48.728;9.154;2023-07-02T07:56:46;149721.13;;;32.52;31.11
14689;BME280;7432;48.728;9.154;2023-07-02T07:59:12;149529.47;;;31.74;32.09
14689;BME280;7432;48.728;9.154;2023-07-02T08:01:40;149712.53;;;32.49;31.23
14689;BME280;7432;48.728;9.154;2023-07-02T08:04:06;149791.25;;;32.81;31.55
14689;BME280;7432;48.728;9.154;2023-07-02T08:06:32;149889.63;;;33.21;30.17
14689;BME280;7432;48.728;9.154;2023-07-02T08:08:59;150275.91;;;34.80;28.39
14689;BME280;7432;48.728;9.154;2023-07-02T08:11:26;150831.34;;;37.07;26.88
14689;BME280;7432;48.728;9.154;2023-07-02T08:13:54;150674.81;;;36.43;27.04
14689;BME280;7432;48.728;9.154;2023-07-02T08:16:20;150843.66;;;37.12;25.99
14689;BME280;7432;48.728;9.154;2023-07-02T08:18:47;150549.19;;;35.92;26.63
14689;BME280;7432;48.728;9.154;2023-07-02T08:21:13;150171.31;;;34.37;28.47
14689;BME280;7432;48.728;9.154;2023-07-02T08:23:42;150081.47;;;34.00;28.13
14689;BME280;7432;48.728;9.154;2023-07-02T08:26:08;149920.34;;;33.34;28.77
14689;BME280;7432;48.728;9.154;2023-07-02T08:28:37;150176.22;;;34.39;28.50
14689;BME280;7432;48.728;9.154;2023-07-02T08:31:04;150321.41;;;34.98;27.85
14689;BME280;7432;48.728;9.154;2023-07-02T08:33:30;150662.50;;;36.38;26.64
14689;BME280;7432;48.728;9.154;2023-07-02T08:35:56;150644.06;;;36.31;26.32
14689;BME280;7432;48.728;9.154;2023-07-02T08:38:23;150629.28;;;36.24;26.48
14689;BME280;7432;48.728;9.154;2023-07-02T08:40:49;150176.22;;;34.39;27.44
14689;BME280;7432;48.728;9.154;2023-07-02T08:43:16;149810.91;;;32.89;29.40
14689;BME280;7432;48.728;9.154;2023-07-02T08:45:43;149296.09;;;30.78;32.59
14689;BME280;7432;48.728;9.154;2023-07-02T08:48:10;148970.84;;;29.44;33.67
14689;BME280;7432;48.728;9.154;2023-07-02T08:50:37;149359.94;;;31.04;32.40
14689;BME280;7432;48.728;9.154;2023-07-02T08:53:03;149498.78;;;31.61;30.93
14689;BME280;7432;48.728;9.154;2023-07-02T08:55:29;149237.19;;;30.53;32.42
14689;BME280;7432;48.728;9.154;2023-07-02T08:57:56;149179.47;;;30.30;32.83
14689;BME280;7432;48.728;9.154;2023-07-02T09:00:25;149237.19;;;30.53;32.54
14689;BME280;7432;48.728;9.154;2023-07-02T09:02:53;149877.34;;;33.16;28.51
14689;BME280;7432;48.728;9.154;2023-07-02T09:05:19;150327.56;;;35.01;27.44
14689;BME280;7432;48.728;9.154;2023-07-02T09:07:46;150583.72;;;36.06;25.80
14689;BME280;7432;48.728;9.154;2023-07-02T09:10:25;150679.75;;;36.45;25.61
14689;BME280;7432;48.728;9.154;2023-07-02T09:13:02;150347.28;;;35.09;26.54
14689;BME280;7432;48.728;9.154;2023-07-02T09:15:34;149807.22;;;32.88;28.15
14689;BME280;7432;48.728;9.154;2023-07-02T09:18:02;150088.84;;;34.03;28.10
14689;BME280;7432;48.728;9.154;2023-07-02T09:20:32;149908.03;;;33.29;28.38
14689;BME280;7432;48.728;9.154;2023-07-02T09:22:59;149882.25;;;33.18;29.10
14689;BME280;7432;48.728;9.154;2023-07-02T09:25:34;150192.22;;;34.45;26.32
14689;BME280;7432;48.728;9.154;2023-07-02T09:28:00;150515.97;;;35.78;25.39
14689;BME280;7432;48.728;9.154;2023-07-02T09:30:27;150593.56;;;36.10;24.71
14689;BME280;7432;48.728;9.154;2023-07-02T09:32:53;150317.75;;;34.97;25.63
14689;BME280;7432;48.728;9.154;2023-07-02T09:35:21;150502.41;;;35.73;25.13
14689;BME280;7432;48.728;9.154;2023-07-02T09:37:47;150557.84;;;35.95;24.96
14689;BME280;7432;48.728;9.154;2023-07-02T09:40:14;150015.06;;;33.73;27.33
14689;BME280;7432;48.728;9.154;2023-07-02T09:42:43;149931.44;;;33.38;27.57
14689;BME280;7432;48.728;9.154;2023-07-02T09:45:15;149774.03;;;32.74;28.38
14689;BME280;7432;48.728;9.154;2023-07-02T09:47:43;149547.88;;;31.81;29.81
14689;BME280;7432;48.728;9.154;2023-07-02T09:50:11;149296.09;;;30.78;30.78
14689;BME280;7432;48.728;9.154;2023-07-02T09:52:40;149029.72;;;29.68;32.52
14689;BME280;7432;48.728;9.154;2023-07-02T09:55:08;148808.94;;;28.77;33.54
14689;BME280;7432;48.728;9.154;2023-07-02T09:57:35;148558.84;;;27.75;36.12
14689;BME280;7432;48.728;9.154;2023-07-02T10:00:03;148734.16;;;28.47;35.11
14689;BME280;7432;48.728;9.154;2023-07-02T10:02:30;148585.78;;;27.86;36.10
14689;BME280;7432;48.728;9.154;2023-07-02T10:04:56;148447.34;;;27.29;36.95
14689;BME280;7432;48.728;9.154;2023-07-02T10:07:27;148365.25;;;26.95;37.61
14689;BME280;7432;48.728;9.154;2023-07-02T10:09:55;148941.41;;;29.32;34.25
14689;BME280;7432;48.728;9.154;2023-07-02T10:12:22;149701.50;;;32.44;30.31
14689;BME280;7432;48.728;9.154;2023-07-02T10:14:50;149881.00;;;33.18;28.30
14689;BME280;7432;48.728;9.154;2023-07-02T10:17:27;149748.22;;;32.63;28.84
14689;BME280;7432;48.728;9.154;2023-07-02T10:19:57;149863.81;;;33.11;27.17
14689;BME280;7432;48.728;9.154;2023-07-02T10:22:23;150307.88;;;34.93;25.77
14689;BME280;7432;48.728;9.154;2023-07-02T10:24:51;150491.34;;;35.68;25.72
14689;BME280;7432;48.728;9.154;2023-07-02T10:27:20;150658.84;;;36.37;23.97
14689;BME280;7432;48.728;9.154;2023-07-02T10:29:50;150332.47;;;35.03;25.75
14689;BME280;7432;48.728;9.154;2023-07-02T10:32:26;149689.22;;;32.39;28.57
14689;BME280;7432;48.728;9.154;2023-07-02T10:34:53;149260.47;;;30.63;30.28
14689;BME280;7432;48.728;9.154;2023-07-02T10:37:19;149421.34;;;31.29;30.00
14689;BME280;7432;48.728;9.154;2023-07-02T10:39:46;149762.97;;;32.69;27.84
14689;BME280;7432;48.728;9.154;2023-07-02T10:42:12;149924.03;;;33.35;27.09
14689;BME280;7432;48.728;9.154;2023-07-02T10:44:48;149597.06;;;32.01;28.30
14689;BME280;7432;48.728;9.154;2023-07-02T10:47:15;149058.00;;;29.80;30.55
14689;BME280;7432;48.728;9.154;2023-07-02T10:49:41;148846.97;;;28.93;33.15
14689;BME280;7432;48.728;9.154;2023-07-02T10:52:08;148790.56;;;28.70;33.05
14689;BME280;7432;48.728;9.154;2023-07-02T10:54:41;148788.09;;;28.69;33.75
14689;BME280;7432;48.728;9.154;2023-07-02T10:57:08;149134.03;;;30.11;32.16
14689;BME280;7432;48.728;9.154;2023-07-02T10:59:35;149371.03;;;31.08;29.65
14689;BME280;7432;48.728;9.154;2023-07-02T11:02:03;149674.44;;;32.33;28.43
14689;BME280;7432;48.728;9.154;2023-07-02T11:04:30;149711.34;;;32.48;28.66
14689;BME280;7432;48.728;9.154;2023-07-02T11:06:57;149833.00;;;32.98;28.10
14689;BME280;7432;48.728;9.154;2023-07-02T11:09:23;149917.91;;;33.33;27.60
14689;BME280;7432;48.728;9.154;2023-07-02T11:11:51;149687.97;;;32.39;28.74
14689;BME280;7432;48.728;9.154;2023-07-02T11:14:26;149309.59;;;30.83;30.42
14689;BME280;7432;48.728;9.154;2023-07-02T11:16:54;149259.28;;;30.63;30.11
14689;BME280;7432;48.728;9.154;2023-07-02T11:19:22;149245.78;;;30.57;30.05
14689;BME280;7432;48.728;9.154;2023-07-02T11:21:52;149228.56;;;30.50;30.04
14689;BME280;7432;48.728;9.154;2023-07-02T11:24:28;149169.63;;;30.26;29.89
14689;BME280;7432;48.728;9.154;2023-07-02T11:26:55;149172.09;;;30.27;30.36
14689;BME280;7432;48.728;9.154;2023-07-02T11:29:21;149046.94;;;29.75;30.98
14689;BME280;7432;48.728;9.154;2023-07-02T11:31:48;149007.63;;;29.59;30.57
14689;BME280;7432;48.728;9.154;2023-07-02T11:34:15;148807.75;;;28.77;30.33
14689;BME280;7432;48.728;9.154;2023-07-02T11:36:43;149026.06;;;29.67;30.92
14689;BME280;7432;48.728;9.154;2023-07-02T11:39:10;149158.59;;;30.21;29.83
14689;BME280;7432;48.728;9.154;2023-07-02T11:41:37;149342.78;;;30.97;29.48
14689;BME280;7432;48.728;9.154;2023-07-02T11:44:04;149632.66;;;32.16;27.80
14689;BME280;7432;48.728;9.154;2023-07-02T11:46:30;149794.91;;;32.82;26.90
14689;BME280;7432;48.728;9.154;2023-07-02T11:48:57;149915.44;;;33.32;27.42
14689;BME280;7432;48.728;9.154;2023-07-02T11:51:25;149958.47;;;33.50;25.73
14689;BME280;7432;48.728;9.154;2023-07-02T11:53:53;150021.19;;;33.75;26.73
14689;BME280;7432;48.728;9.154;2023-07-02T11:56:19;149858.91;;;33.09;25.98
14689;BME280;7432;48.728;9.154;2023-07-02T11:58:45;149762.97;;;32.69;27.52
14689;BME280;7432;48.728;9.154;2023-07-02T12:01:12;149853.97;;;33.07;25.67
14689;BME280;7432;48.728;9.154;2023-07-02T12:03:38;149905.63;;;33.28;26.44
14689;BME280;7432;48.728;9.154;2023-07-02T12:06:04;149820.72;;;32.93;26.29
14689;BME280;7432;48.728;9.154;2023-07-02T12:08:31;149519.63;;;31.69;27.63
14689;BME280;7432;48.728;9.154;2023-07-02T12:10:59;149362.41;;;31.05;28.73
14689;BME280;7432;48.728;9.154;2023-07-02T12:13:25;149282.59;;;30.72;28.87
14689;BME280;7432;48.728;9.154;2023-07-02T12:15:51;149449.59;;;31.41;28.49
14689;BME280;7432;48.728;9.154;2023-07-02T12:18:18;149438.56;;;31.36;29.35
14689;BME280;7432;48.728;9.154;2023-07-02T12:20:44;149391.91;;;31.17;29.11
14689;BME280;7432;48.728;9.154;2023-07-02T12:23:11;149251.94;;;30.60;29.70
14689;BME280;7432;48.728;9.154;2023-07-02T12:25:37;149226.16;;;30.49;29.18
14689;BME280;7432;48.728;9.154;2023-07-02T12:28:05;148975.75;;;29.46;30.04
14689;BME280;7432;48.728;9.154;2023-07-02T12:30:32;148888.63;;;29.10;30.13
14689;BME280;7432;48.728;9.154;2023-07-02T12:32:58;148788.09;;;28.69;30.90
14689;BME280;7432;48.728;9.154;2023-07-02T12:35:25;148887.44;;;29.10;30.24
14689;BME280;7432;48.728;9.154;2023-07-02T12:37:52;148876.38;;;29.05;30.50
14689;BME280;7432;48.728;9.154;2023-07-02T12:40:19;148913.19;;;29.20;30.20
14689;BME280;7432;48.728;9.154;2023-07-02T12:42:47;148880.06;;;29.07;29.90
14689;BME280;7432;48.728;9.154;2023-07-02T12:45:16;148843.28;;;28.92;30.89
14689;BME280;7432;48.728;9.154;2023-07-02T12:47:42;148833.50;;;28.88;30.74
14689;BME280;7432;48.728;9.154;2023-07-02T12:50:10;148788.09;;;28.69;31.22
14689;BME280;7432;48.728;9.154;2023-07-02T12:52:37;148614.00;;;27.97;31.88
14689;BME280;7432;48.728;9.154;2023-07-02T12:55:04;148557.59;;;27.74;32.70
14689;BME280;7432;48.728;9.154;2023-07-02T12:57:30;148572.31;;;27.80;32.11
14689;BME280;7432;48.728;9.154;2023-07-02T12:59:57;148413.03;;;27.15;32.79